sensor_id;sensor_type;location;lat;lon;timestamp;P1;durP1;ratioP1;P2;durP2;ratioP2
22843;SDS011;11588;51.178;4.852;2023-08-06T00:01:34;0.80;;;0.45;;
22843;SDS011;11588;51.178;4.852;2023-08-06T00:03:59;1.40;;;0.90;;
22843;SDS011;11588;51.178;4.852;2023-08-06T00:06:27;2.80;;;0.70;;
22843;SDS011;11588;51.178;4.852;2023-08-06T00:08:54;0.40;;;0.22;;
22843;SDS011;11588;51.178;4.852;2023-08-06T00:11:21;0.68;;;0.40;;
22843;SDS011;11588;51.178;4.852;2023-08-06T00:13:48;1.23;;;0.65;;
22843;SDS011;11588;51.178;4.852;2023-08-06T00:16:15;0.90;;;0.60;;
22843;SDS011;11588;51.178;4.852;2023-08-06T00:18:42;0.95;;;0.30;;
22843;SDS011;11588;51.178;4.852;2023-08-06T00:21:08;1.02;;;0.68;;
22843;SDS011;11588;51.178;4.852;2023-08-06T00:23:34;0.30;;;0.20;;
22843;SDS011;11588;51.178;4.852;2023-08-06T00:26:05;1.65;;;0.80;;
22843;SDS011;11588;51.178;4.852;2023-08-06T00:28:32;0.68;;;0.50;;
22843;SDS011;11588;51.178;4.852;2023-08-06T00:30:59;1.17;;;0.38;;
22843;SDS011;11588;51.178;4.852;2023-08-06T00:33:26;0.73;;;0.50;;
22843;SDS011;11588;51.178;4.852;2023-08-06T00:35:52;0.52;;;0.30;;
22843;SDS011;11588;51.178;4.852;2023-08-06T00:38:20;0.70;;;0.50;;
22843;SDS011;11588;51.178;4.852;2023-08-06T00:40:47;0.77;;;0.25;;
22843;SDS011;11588;51.178;4.852;2023-08-06T00:43:14;1.77;;;0.90;;
22843;SDS011;11588;51.178;4.852;2023-08-06T00:45:41;4.13;;;0.68;;
22843;SDS011;11588;51.178;4.852;2023-08-06T00:48:08;1.17;;;0.40;;
22843;SDS011;11588;51.178;4.852;2023-08-06T00:50:34;1.88;;;0.75;;
22843;SDS011;11588;51.178;4.852;2023-08-06T00:53:01;0.70;;;0.47;;
22843;SDS011;11588;51.178;4.852;2023-08-06T00:55:28;1.27;;;0.40;;
22843;SDS011;11588;51.178;4.852;2023-08-06T00:57:55;0.85;;;0.50;;
22843;SDS011;11588;51.178;4.852;2023-08-06T01:00:23;0.45;;;0.20;;
22843;SDS011;11588;51.178;4.852;2023-08-06T01:02:50;0.57;;;0.50;;
22843;SDS011;11588;51.178;4.852;2023-08-06T01:05:17;0.52;;;0.40;;
22843;SDS011;11588;51.178;4.852;2023-08-06T01:07:47;1.25;;;0.40;;
22843;SDS011;11588;51.178;4.852;2023-08-06T01:10:23;1.55;;;0.70;;
22843;SDS011;11588;51.178;4.852;2023-08-06T01:12:57;1.17;;;0.40;;
22843;SDS011;11588;51.178;4.852;2023-08-06T01:15:32;1.23;;;0.55;;
22843;SDS011;11588;51.178;4.852;2023-08-06T01:18:01;1.00;;;0.68;;
22843;SDS011;11588;51.178;4.852;2023-08-06T01:20:29;0.60;;;0.43;;
22843;SDS011;11588;51.178;4.852;2023-08-06T01:22:58;1.23;;;0.57;;
22843;SDS011;11588;51.178;4.852;2023-08-06T01:28:04;1.38;;;0.80;;
22843;SDS011;11588;51.178;4.852;2023-08-06T01:30:32;0.88;;;0.50;;
22843;SDS011;11588;51.178;4.852;2023-08-06T01:33:05;1.10;;;0.60;;
22843;SDS011;11588;51.178;4.852;2023-08-06T01:35:33;2.22;;;0.60;;
22843;SDS011;11588;51.178;4.852;2023-08-06T01:38:01;1.52;;;0.80;;
22843;SDS011;11588;51.178;4.852;2023-08-06T01:40:29;1.55;;;0.90;;
22843;SDS011;11588;51.178;4.852;2023-08-06T01:42:55;1.13;;;0.43;;
22843;SDS011;11588;51.178;4.852;2023-08-06T01:45:22;2.15;;;0.93;;
22843;SDS011;11588;51.178;4.852;2023-08-06T01:47:48;1.75;;;0.80;;
22843;SDS011;11588;51.178;4.852;2023-08-06T01:50:15;1.52;;;0.85;;
22843;SDS011;11588;51.178;4.852;2023-08-06T01:52:42;2.65;;;0.82;;
22843;SDS011;11588;51.178;4.852;2023-08-06T01:55:08;1.98;;;0.98;;
22843;SDS011;11588;51.178;4.852;2023-08-06T01:57:35;4.10;;;1.27;;
22843;SDS011;11588;51.178;4.852;2023-08-06T02:00:02;4.00;;;1.27;;
22843;SDS011;11588;51.178;4.852;2023-08-06T02:02:30;3.05;;;0.85;;
22843;SDS011;11588;51.178;4.852;2023-08-06T02:04:56;2.75;;;1.00;;
22843;SDS011;11588;51.178;4.852;2023-08-06T02:07:24;1.65;;;1.00;;
22843;SDS011;11588;51.178;4.852;2023-08-06T02:09:51;2.28;;;1.15;;
22843;SDS011;11588;51.178;4.852;2023-08-06T02:12:17;1.88;;;0.75;;
22843;SDS011;11588;51.178;4.852;2023-08-06T02:14:44;2.67;;;1.08;;
22843;SDS011;11588;51.178;4.852;2023-08-06T02:17:11;2.17;;;1.08;;
22843;SDS011;11588;51.178;4.852;2023-08-06T02:19:37;1.70;;;0.88;;
22843;SDS011;11588;51.178;4.852;2023-08-06T02:22:04;1.40;;;0.60;;
22843;SDS011;11588;51.178;4.852;2023-08-06T02:24:31;2.30;;;0.68;;
22843;SDS011;11588;51.178;4.852;2023-08-06T02:26:58;1.45;;;0.90;;
22843;SDS011;11588;51.178;4.852;2023-08-06T02:29:26;1.27;;;0.57;;
22843;SDS011;11588;51.178;4.852;2023-08-06T02:31:53;1.50;;;0.90;;
22843;SDS011;11588;51.178;4.852;2023-08-06T02:34:21;3.03;;;0.95;;
22843;SDS011;11588;51.178;4.852;2023-08-06T02:36:48;1.85;;;0.60;;
22843;SDS011;11588;51.178;4.852;2023-08-06T02:39:14;2.15;;;0.70;;
22843;SDS011;11588;51.178;4.852;2023-08-06T02:41:41;3.67;;;1.42;;
22843;SDS011;11588;51.178;4.852;2023-08-06T02:44:08;1.85;;;0.80;;
22843;SDS011;11588;51.178;4.852;2023-08-06T02:46:34;2.08;;;0.82;;
22843;SDS011;11588;51.178;4.852;2023-08-06T02:49:00;2.08;;;1.27;;
22843;SDS011;11588;51.178;4.852;2023-08-06T02:51:26;1.75;;;0.80;;
22843;SDS011;11588;51.178;4.852;2023-08-06T02:53:53;2.70;;;0.93;;
22843;SDS011;11588;51.178;4.852;2023-08-06T02:56:19;3.60;;;0.77;;
22843;SDS011;11588;51.178;4.852;2023-08-06T02:58:46;1.65;;;1.13;;
22843;SDS011;11588;51.178;4.852;2023-08-06T03:01:20;2.55;;;1.10;;
22843;SDS011;11588;51.178;4.852;2023-08-06T03:03:46;2.25;;;0.93;;
22843;SDS011;11588;51.178;4.852;2023-08-06T03:06:13;1.73;;;0.88;;
22843;SDS011;11588;51.178;4.852;2023-08-06T03:08:40;0.40;;;0.40;;
22843;SDS011;11588;51.178;4.852;2023-08-06T03:11:05;0.85;;;0.52;;
22843;SDS011;11588;51.178;4.852;2023-08-06T03:13:32;0.73;;;0.40;;
22843;SDS011;11588;51.178;4.852;2023-08-06T03:15:58;0.63;;;0.40;;
22843;SDS011;11588;51.178;4.852;2023-08-06T03:18:25;0.30;;;0.20;;
22843;SDS011;11588;51.178;4.852;2023-08-06T03:20:55;0.50;;;0.30;;
22843;SDS011;11588;51.178;4.852;2023-08-06T03:23:22;0.35;;;0.20;;
22843;SDS011;11588;51.178;4.852;2023-08-06T03:25:52;0.47;;;0.15;;
22843;SDS011;11588;51.178;4.852;2023-08-06T03:28:18;0.82;;;0.10;;
22843;SDS011;11588;51.178;4.852;2023-08-06T03:30:46;0.20;;;0.20;;
22843;SDS011;11588;51.178;4.852;2023-08-06T03:33:13;0.20;;;0.00;;
22843;SDS011;11588;51.178;4.852;2023-08-06T03:35:40;0.10;;;0.10;;
22843;SDS011;11588;51.178;4.852;2023-08-06T03:38:07;0.10;;;0.00;;
22843;SDS011;11588;51.178;4.852;2023-08-06T03:40:34;0.82;;;0.20;;
22843;SDS011;11588;51.178;4.852;2023-08-06T03:43:02;1.98;;;0.10;;
22843;SDS011;11588;51.178;4.852;2023-08-06T03:45:29;0.00;;;0.00;;
22843;SDS011;11588;51.178;4.852;2023-08-06T03:48:00;0.47;;;0.30;;
22843;SDS011;11588;51.178;4.852;2023-08-06T03:50:26;0.13;;;0.13;;
22843;SDS011;11588;51.178;4.852;2023-08-06T03:52:52;0.05;;;0.05;;
22843;SDS011;11588;51.178;4.852;2023-08-06T03:55:19;1.67;;;0.20;;
22843;SDS011;11588;51.178;4.852;2023-08-06T03:57:46;0.20;;;0.15;;
22843;SDS011;11588;51.178;4.852;2023-08-06T04:00:11;0.22;;;0.10;;
22843;SDS011;11588;51.178;4.852;2023-08-06T04:02:39;0.10;;;0.10;;
22843;SDS011;11588;51.178;4.852;2023-08-06T04:05:08;0.20;;;0.00;;
22843;SDS011;11588;51.178;4.852;2023-08-06T04:07:34;0.20;;;0.10;;
22843;SDS011;11588;51.178;4.852;2023-08-06T04:10:02;0.10;;;0.10;;
22843;SDS011;11588;51.178;4.852;2023-08-06T04:12:30;1.23;;;0.60;;
22843;SDS011;11588;51.178;4.852;2023-08-06T04:15:03;0.30;;;0.17;;
22843;SDS011;11588;51.178;4.852;2023-08-06T04:17:30;0.30;;;0.20;;
22843;SDS011;11588;51.178;4.852;2023-08-06T04:19:55;0.30;;;0.30;;
22843;SDS011;11588;51.178;4.852;2023-08-06T04:22:24;1.35;;;0.80;;
22843;SDS011;11588;51.178;4.852;2023-08-06T04:24:52;0.90;;;0.60;;
22843;SDS011;11588;51.178;4.852;2023-08-06T04:27:18;1.95;;;0.80;;
22843;SDS011;11588;51.178;4.852;2023-08-06T04:29:45;6.70;;;1.40;;
22843;SDS011;11588;51.178;4.852;2023-08-06T04:32:13;3.33;;;1.75;;
22843;SDS011;11588;51.178;4.852;2023-08-06T04:34:40;4.50;;;1.52;;
22843;SDS011;11588;51.178;4.852;2023-08-06T04:37:06;6.78;;;1.80;;
22843;SDS011;11588;51.178;4.852;2023-08-06T04:39:33;3.58;;;2.08;;
22843;SDS011;11588;51.178;4.852;2023-08-06T04:42:00;4.57;;;1.88;;
22843;SDS011;11588;51.178;4.852;2023-08-06T04:44:26;5.10;;;2.35;;
22843;SDS011;11588;51.178;4.852;2023-08-06T04:46:53;5.05;;;2.90;;
22843;SDS011;11588;51.178;4.852;2023-08-06T04:49:24;6.93;;;3.65;;
22843;SDS011;11588;51.178;4.852;2023-08-06T04:51:53;4.55;;;2.38;;
22843;SDS011;11588;51.178;4.852;2023-08-06T04:54:19;8.25;;;3.58;;
22843;SDS011;11588;51.178;4.852;2023-08-06T04:56:46;6.13;;;3.63;;
22843;SDS011;11588;51.178;4.852;2023-08-06T04:59:14;3.50;;;2.47;;
22843;SDS011;11588;51.178;4.852;2023-08-06T05:01:40;6.10;;;2.42;;
22843;SDS011;11588;51.178;4.852;2023-08-06T05:04:06;3.55;;;1.90;;
22843;SDS011;11588;51.178;4.852;2023-08-06T05:06:37;3.83;;;1.77;;
22843;SDS011;11588;51.178;4.852;2023-08-06T05:09:04;3.42;;;2.10;;
22843;SDS011;11588;51.178;4.852;2023-08-06T05:11:34;7.38;;;1.83;;
22843;SDS011;11588;51.178;4.852;2023-08-06T05:14:01;2.70;;;1.52;;
22843;SDS011;11588;51.178;4.852;2023-08-06T05:16:28;8.93;;;3.08;;
22843;SDS011;11588;51.178;4.852;2023-08-06T05:18:55;5.78;;;1.83;;
22843;SDS011;11588;51.178;4.852;2023-08-06T05:21:22;2.47;;;1.63;;
22843;SDS011;11588;51.178;4.852;2023-08-06T05:23:49;1.35;;;0.90;;
22843;SDS011;11588;51.178;4.852;2023-08-06T05:26:17;3.65;;;1.65;;
22843;SDS011;11588;51.178;4.852;2023-08-06T05:28:46;10.20;;;1.38;;
22843;SDS011;11588;51.178;4.852;2023-08-06T05:31:17;7.70;;;0.73;;
22843;SDS011;11588;51.178;4.852;2023-08-06T05:33:46;2.17;;;1.25;;
22843;SDS011;11588;51.178;4.852;2023-08-06T05:36:17;0.85;;;0.65;;
22843;SDS011;11588;51.178;4.852;2023-08-06T05:38:44;2.65;;;1.02;;
22843;SDS011;11588;51.178;4.852;2023-08-06T05:41:09;2.80;;;1.05;;
22843;SDS011;11588;51.178;4.852;2023-08-06T05:43:34;1.45;;;0.90;;
22843;SDS011;11588;51.178;4.852;2023-08-06T05:46:00;2.15;;;0.55;;
22843;SDS011;11588;51.178;4.852;2023-08-06T05:48:31;2.35;;;0.93;;
22843;SDS011;11588;51.178;4.852;2023-08-06T05:50:58;0.68;;;0.40;;
22843;SDS011;11588;51.178;4.852;2023-08-06T05:53:27;4.18;;;1.52;;
22843;SDS011;11588;51.178;4.852;2023-08-06T05:55:56;3.80;;;1.15;;
22843;SDS011;11588;51.178;4.852;2023-08-06T05:58:23;3.97;;;0.80;;
22843;SDS011;11588;51.178;4.852;2023-08-06T06:00:52;1.55;;;0.60;;
22843;SDS011;11588;51.178;4.852;2023-08-06T06:03:18;2.75;;;0.90;;
22843;SDS011;11588;51.178;4.852;2023-08-06T06:05:45;1.35;;;0.57;;
22843;SDS011;11588;51.178;4.852;2023-08-06T06:08:13;4.30;;;1.27;;
22843;SDS011;11588;51.178;4.852;2023-08-06T06:10:41;2.83;;;1.00;;
22843;SDS011;11588;51.178;4.852;2023-08-06T06:13:09;2.45;;;0.93;;
22843;SDS011;11588;51.178;4.852;2023-08-06T06:15:35;5.38;;;0.95;;
22843;SDS011;11588;51.178;4.852;2023-08-06T06:18:03;3.38;;;1.25;;
22843;SDS011;11588;51.178;4.852;2023-08-06T06:20:28;1.95;;;0.70;;
22843;SDS011;11588;51.178;4.852;2023-08-06T06:22:55;1.75;;;0.70;;
22843;SDS011;11588;51.178;4.852;2023-08-06T06:25:21;5.75;;;0.88;;
22843;SDS011;11588;51.178;4.852;2023-08-06T06:27:47;7.03;;;2.08;;
22843;SDS011;11588;51.178;4.852;2023-08-06T06:30:14;2.15;;;1.10;;
22843;SDS011;11588;51.178;4.852;2023-08-06T06:32:41;1.55;;;1.20;;
22843;SDS011;11588;51.178;4.852;2023-08-06T06:35:08;2.53;;;1.02;;
22843;SDS011;11588;51.178;4.852;2023-08-06T06:37:35;1.77;;;0.98;;
22843;SDS011;11588;51.178;4.852;2023-08-06T06:40:02;2.42;;;1.33;;
22843;SDS011;11588;51.178;4.852;2023-08-06T06:42:30;2.55;;;0.90;;
22843;SDS011;11588;51.178;4.852;2023-08-06T06:44:56;3.60;;;0.90;;
22843;SDS011;11588;51.178;4.852;2023-08-06T06:47:23;2.55;;;1.02;;
22843;SDS011;11588;51.178;4.852;2023-08-06T06:49:50;0.73;;;0.32;;
22843;SDS011;11588;51.178;4.852;2023-08-06T06:52:17;2.03;;;0.50;;
22843;SDS011;11588;51.178;4.852;2023-08-06T06:54:43;3.97;;;1.08;;
22843;SDS011;11588;51.178;4.852;2023-08-06T06:57:10;0.93;;;0.40;;
22843;SDS011;11588;51.178;4.852;2023-08-06T06:59:37;1.38;;;0.35;;
22843;SDS011;11588;51.178;4.852;2023-08-06T07:02:05;1.58;;;0.77;;
22843;SDS011;11588;51.178;4.852;2023-08-06T07:04:32;1.38;;;0.45;;
22843;SDS011;11588;51.178;4.852;2023-08-06T07:06:58;3.60;;;0.30;;
22843;SDS011;11588;51.178;4.852;2023-08-06T07:09:25;0.77;;;0.40;;
22843;SDS011;11588;51.178;4.852;2023-08-06T07:11:52;2.42;;;0.43;;
22843;SDS011;11588;51.178;4.852;2023-08-06T07:14:19;0.38;;;0.22;;
22843;SDS011;11588;51.178;4.852;2023-08-06T07:16:46;1.70;;;0.35;;
22843;SDS011;11588;51.178;4.852;2023-08-06T07:19:13;4.88;;;0.22;;
22843;SDS011;11588;51.178;4.852;2023-08-06T07:21:39;0.68;;;0.40;;
22843;SDS011;11588;51.178;4.852;2023-08-06T07:24:06;3.80;;;0.47;;
22843;SDS011;11588;51.178;4.852;2023-08-06T07:26:33;2.92;;;0.20;;
22843;SDS011;11588;51.178;4.852;2023-08-06T07:29:00;7.53;;;0.47;;
22843;SDS011;11588;51.178;4.852;2023-08-06T07:31:26;3.60;;;0.70;;
22843;SDS011;11588;51.178;4.852;2023-08-06T07:33:53;4.35;;;0.95;;
22843;SDS011;11588;51.178;4.852;2023-08-06T07:36:23;1.70;;;0.38;;
22843;SDS011;11588;51.178;4.852;2023-08-06T07:38:50;1.67;;;0.60;;
22843;SDS011;11588;51.178;4.852;2023-08-06T07:41:22;1.10;;;0.40;;
22843;SDS011;11588;51.178;4.852;2023-08-06T07:43:49;2.58;;;0.40;;
22843;SDS011;11588;51.178;4.852;2023-08-06T07:46:15;1.55;;;0.17;;
22843;SDS011;11588;51.178;4.852;2023-08-06T07:48:41;1.33;;;0.10;;
22843;SDS011;11588;51.178;4.852;2023-08-06T07:51:08;4.38;;;0.47;;
22843;SDS011;11588;51.178;4.852;2023-08-06T07:53:35;2.28;;;0.65;;
22843;SDS011;11588;51.178;4.852;2023-08-06T07:56:01;2.13;;;0.40;;
22843;SDS011;11588;51.178;4.852;2023-08-06T07:58:28;3.10;;;0.45;;
22843;SDS011;11588;51.178;4.852;2023-08-06T08:00:55;0.77;;;0.35;;
22843;SDS011;11588;51.178;4.852;2023-08-06T08:03:23;0.22;;;0.10;;
22843;SDS011;11588;51.178;4.852;2023-08-06T08:05:50;3.00;;;0.40;;
22843;SDS011;11588;51.178;4.852;2023-08-06T08:08:20;0.40;;;0.33;;
22843;SDS011;11588;51.178;4.852;2023-08-06T08:10:46;1.10;;;0.30;;
22843;SDS011;11588;51.178;4.852;2023-08-06T08:13:26;0.25;;;0.20;;
22843;SDS011;11588;51.178;4.852;2023-08-06T08:15:56;5.55;;;0.28;;
22843;SDS011;11588;51.178;4.852;2023-08-06T08:18:23;2.90;;;0.22;;
22843;SDS011;11588;51.178;4.852;2023-08-06T08:20:50;3.45;;;0.45;;
22843;SDS011;11588;51.178;4.852;2023-08-06T08:23:17;2.33;;;0.40;;
22843;SDS011;11588;51.178;4.852;2023-08-06T08:25:44;2.70;;;0.93;;
22843;SDS011;11588;51.178;4.852;2023-08-06T08:28:11;1.77;;;0.73;;
22843;SDS011;11588;51.178;4.852;2023-08-06T08:30:37;0.57;;;0.10;;
22843;SDS011;11588;51.178;4.852;2023-08-06T08:33:04;0.77;;;0.20;;
22843;SDS011;11588;51.178;4.852;2023-08-06T08:35:31;2.17;;;0.38;;
22843;SDS011;11588;51.178;4.852;2023-08-06T08:37:56;0.30;;;0.17;;
22843;SDS011;11588;51.178;4.852;2023-08-06T08:40:23;2.30;;;0.30;;
22843;SDS011;11588;51.178;4.852;2023-08-06T08:42:52;7.45;;;0.95;;
22843;SDS011;11588;51.178;4.852;2023-08-06T08:45:18;4.03;;;1.48;;
22843;SDS011;11588;51.178;4.852;2023-08-06T08:47:47;0.90;;;0.60;;
22843;SDS011;11588;51.178;4.852;2023-08-06T08:50:13;3.20;;;0.45;;
22843;SDS011;11588;51.178;4.852;2023-08-06T08:52:41;4.35;;;0.50;;
22843;SDS011;11588;51.178;4.852;2023-08-06T08:55:08;3.38;;;0.30;;
22843;SDS011;11588;51.178;4.852;2023-08-06T08:57:36;9.85;;;1.05;;
22843;SDS011;11588;51.178;4.852;2023-08-06T09:00:03;2.05;;;1.05;;
22843;SDS011;11588;51.178;4.852;2023-08-06T09:02:30;4.28;;;0.68;;
22843;SDS011;11588;51.178;4.852;2023-08-06T09:04:58;1.60;;;0.50;;
22843;SDS011;11588;51.178;4.852;2023-08-06T09:10:02;1.05;;;0.30;;
22843;SDS011;11588;51.178;4.852;2023-08-06T09:12:30;0.20;;;0.20;;
22843;SDS011;11588;51.178;4.852;2023-08-06T09:14:58;1.63;;;0.60;;
22843;SDS011;11588;51.178;4.852;2023-08-06T09:17:25;1.40;;;0.45;;
22843;SDS011;11588;51.178;4.852;2023-08-06T09:19:52;2.15;;;0.70;;
22843;SDS011;11588;51.178;4.852;2023-08-06T09:22:18;0.50;;;0.35;;
22843;SDS011;11588;51.178;4.852;2023-08-06T09:24:45;1.27;;;0.10;;
22843;SDS011;11588;51.178;4.852;2023-08-06T09:27:12;0.20;;;0.20;;
22843;SDS011;11588;51.178;4.852;2023-08-06T09:29:41;0.63;;;0.10;;
22843;SDS011;11588;51.178;4.852;2023-08-06T09:32:09;0.10;;;0.08;;
22843;SDS011;11588;51.178;4.852;2023-08-06T09:34:35;0.82;;;0.40;;
22843;SDS011;11588;51.178;4.852;2023-08-06T09:37:09;2.65;;;0.70;;
22843;SDS011;11588;51.178;4.852;2023-08-06T09:39:37;1.88;;;0.43;;
22843;SDS011;11588;51.178;4.852;2023-08-06T09:42:05;0.47;;;0.13;;
22843;SDS011;11588;51.178;4.852;2023-08-06T09:44:33;0.43;;;0.10;;
22843;SDS011;11588;51.178;4.852;2023-08-06T09:47:01;3.42;;;0.30;;
22843;SDS011;11588;51.178;4.852;2023-08-06T09:49:43;0.45;;;0.15;;
22843;SDS011;11588;51.178;4.852;2023-08-06T09:52:12;0.30;;;0.10;;
22843;SDS011;11588;51.178;4.852;2023-08-06T09:54:39;1.55;;;0.22;;
22843;SDS011;11588;51.178;4.852;2023-08-06T09:57:07;0.10;;;0.10;;
22843;SDS011;11588;51.178;4.852;2023-08-06T09:59:33;2.47;;;0.40;;
22843;SDS011;11588;51.178;4.852;2023-08-06T10:02:02;0.95;;;0.20;;
22843;SDS011;11588;51.178;4.852;2023-08-06T10:04:29;1.85;;;0.30;;
22843;SDS011;11588;51.178;4.852;2023-08-06T10:06:54;0.32;;;0.10;;
22843;SDS011;11588;51.178;4.852;2023-08-06T10:09:21;0.55;;;0.45;;
22843;SDS011;11588;51.178;4.852;2023-08-06T10:11:49;1.48;;;0.40;;
22843;SDS011;11588;51.178;4.852;2023-08-06T10:14:18;0.15;;;0.15;;
22843;SDS011;11588;51.178;4.852;2023-08-06T10:16:50;1.02;;;0.05;;
22843;SDS011;11588;51.178;4.852;2023-08-06T10:19:20;3.17;;;0.50;;
22843;SDS011;11588;51.178;4.852;2023-08-06T10:24:23;6.93;;;1.23;;
22843;SDS011;11588;51.178;4.852;2023-08-06T10:26:49;1.80;;;0.22;;
22843;SDS011;11588;51.178;4.852;2023-08-06T10:32:06;1.90;;;0.73;;
22843;SDS011;11588;51.178;4.852;2023-08-06T10:37:09;3.03;;;0.45;;
22843;SDS011;11588;51.178;4.852;2023-08-06T10:39:36;0.85;;;0.10;;
22843;SDS011;11588;51.178;4.852;2023-08-06T10:42:02;0.50;;;0.22;;
22843;SDS011;11588;51.178;4.852;2023-08-06T10:44:28;3.30;;;0.15;;
22843;SDS011;11588;51.178;4.852;2023-08-06T10:46:54;0.38;;;0.32;;
22843;SDS011;11588;51.178;4.852;2023-08-06T10:49:26;0.40;;;0.10;;
22843;SDS011;11588;51.178;4.852;2023-08-06T10:51:54;0.22;;;0.00;;
22843;SDS011;11588;51.178;4.852;2023-08-06T10:54:20;5.28;;;0.50;;
22843;SDS011;11588;51.178;4.852;2023-08-06T10:56:48;3.22;;;0.82;;
22843;SDS011;11588;51.178;4.852;2023-08-06T10:59:15;1.55;;;0.03;;
22843;SDS011;11588;51.178;4.852;2023-08-06T11:01:43;2.40;;;0.90;;
22843;SDS011;11588;51.178;4.852;2023-08-06T11:04:09;0.90;;;0.77;;
22843;SDS011;11588;51.178;4.852;2023-08-06T11:06:43;1.23;;;0.30;;
22843;SDS011;11588;51.178;4.852;2023-08-06T11:09:10;0.82;;;0.32;;
22843;SDS011;11588;51.178;4.852;2023-08-06T11:11:37;0.32;;;0.30;;
22843;SDS011;11588;51.178;4.852;2023-08-06T11:14:04;1.70;;;0.17;;
22843;SDS011;11588;51.178;4.852;2023-08-06T11:16:31;0.10;;;0.10;;
22843;SDS011;11588;51.178;4.852;2023-08-06T11:18:56;0.70;;;0.20;;
22843;SDS011;11588;51.178;4.852;2023-08-06T11:21:25;1.88;;;1.15;;
22843;SDS011;11588;51.178;4.852;2023-08-06T11:23:57;2.10;;;0.98;;
22843;SDS011;11588;51.178;4.852;2023-08-06T11:26:23;2.83;;;0.40;;
22843;SDS011;11588;51.178;4.852;2023-08-06T11:28:54;1.05;;;0.30;;
22843;SDS011;11588;51.178;4.852;2023-08-06T11:31:21;0.95;;;0.40;;
22843;SDS011;11588;51.178;4.852;2023-08-06T11:33:52;1.25;;;0.50;;
22843;SDS011;11588;51.178;4.852;2023-08-06T11:36:32;2.08;;;0.85;;
22843;SDS011;11588;51.178;4.852;2023-08-06T11:39:00;2.17;;;0.43;;
22843;SDS011;11588;51.178;4.852;2023-08-06T11:41:29;3.10;;;0.68;;
22843;SDS011;11588;51.178;4.852;2023-08-06T11:43:56;0.43;;;0.20;;
22843;SDS011;11588;51.178;4.852;2023-08-06T11:46:22;1.38;;;0.38;;
22843;SDS011;11588;51.178;4.852;2023-08-06T11:48:54;0.65;;;0.43;;
22843;SDS011;11588;51.178;4.852;2023-08-06T11:51:22;3.90;;;1.00;;
22843;SDS011;11588;51.178;4.852;2023-08-06T11:53:49;0.85;;;0.25;;
22843;SDS011;11588;51.178;4.852;2023-08-06T11:56:22;3.72;;;0.80;;
22843;SDS011;11588;51.178;4.852;2023-08-06T11:58:49;1.15;;;0.70;;
22843;SDS011;11588;51.178;4.852;2023-08-06T12:01:15;4.22;;;0.85;;
22843;SDS011;11588;51.178;4.852;2023-08-06T12:03:45;2.95;;;0.50;;
22843;SDS011;11588;51.178;4.852;2023-08-06T12:06:13;2.25;;;0.22;;
22843;SDS011;11588;51.178;4.852;2023-08-06T12:08:40;6.60;;;1.55;;
22843;SDS011;11588;51.178;4.852;2023-08-06T12:11:08;2.97;;;0.70;;
22843;SDS011;11588;51.178;4.852;2023-08-06T12:13:34;2.42;;;0.93;;
22843;SDS011;11588;51.178;4.852;2023-08-06T12:16:03;1.00;;;0.35;;
22843;SDS011;11588;51.178;4.852;2023-08-06T12:18:31;2.38;;;0.25;;
22843;SDS011;11588;51.178;4.852;2023-08-06T12:20:58;1.95;;;0.32;;
22843;SDS011;11588;51.178;4.852;2023-08-06T12:23:28;15.73;;;0.93;;
22843;SDS011;11588;51.178;4.852;2023-08-06T12:25:56;1.30;;;0.25;;
22843;SDS011;11588;51.178;4.852;2023-08-06T12:28:22;2.40;;;0.35;;
22843;SDS011;11588;51.178;4.852;2023-08-06T12:30:49;6.03;;;0.63;;
22843;SDS011;11588;51.178;4.852;2023-08-06T12:33:18;3.30;;;0.95;;
22843;SDS011;11588;51.178;4.852;2023-08-06T12:35:44;1.20;;;0.47;;
22843;SDS011;11588;51.178;4.852;2023-08-06T12:38:11;4.38;;;0.47;;
22843;SDS011;11588;51.178;4.852;2023-08-06T12:40:40;1.38;;;0.35;;
22843;SDS011;11588;51.178;4.852;2023-08-06T12:43:06;0.30;;;0.10;;
22843;SDS011;11588;51.178;4.852;2023-08-06T12:45:35;3.88;;;0.73;;
22843;SDS011;11588;51.178;4.852;2023-08-06T12:48:04;0.03;;;0.03;;
22843;SDS011;11588;51.178;4.852;2023-08-06T12:50:43;3.50;;;0.50;;
22843;SDS011;11588;51.178;4.852;2023-08-06T12:53:13;3.97;;;0.55;;
22843;SDS011;11588;51.178;4.852;2023-08-06T12:55:39;2.03;;;0.95;;
22843;SDS011;11588;51.178;4.852;2023-08-06T12:58:09;1.15;;;0.47;;
22843;SDS011;11588;51.178;4.852;2023-08-06T13:00:37;0.40;;;0.20;;
22843;SDS011;11588;51.178;4.852;2023-08-06T13:03:03;2.22;;;0.50;;
22843;SDS011;11588;51.178;4.852;2023-08-06T13:05:30;1.05;;;0.40;;
22843;SDS011;11588;51.178;4.852;2023-08-06T13:07:57;6.30;;;0.40;;
22843;SDS011;11588;51.178;4.852;2023-08-06T13:10:24;0.73;;;0.45;;
22843;SDS011;11588;51.178;4.852;2023-08-06T13:12:53;1.27;;;1.20;;
22843;SDS011;11588;51.178;4.852;2023-08-06T13:15:20;0.50;;;0.10;;
22843;SDS011;11588;51.178;4.852;2023-08-06T13:17:47;5.15;;;0.25;;
22843;SDS011;11588;51.178;4.852;2023-08-06T13:20:19;2.25;;;0.40;;
22843;SDS011;11588;51.178;4.852;2023-08-06T13:22:48;2.25;;;0.35;;
22843;SDS011;11588;51.178;4.852;2023-08-06T13:25:21;1.08;;;0.30;;
22843;SDS011;11588;51.178;4.852;2023-08-06T13:27:50;1.08;;;0.30;;
22843;SDS011;11588;51.178;4.852;2023-08-06T13:30:16;2.20;;;0.20;;
22843;SDS011;11588;51.178;4.852;2023-08-06T13:32:44;1.13;;;0.05;;
22843;SDS011;11588;51.178;4.852;2023-08-06T13:35:11;0.95;;;0.20;;
22843;SDS011;11588;51.178;4.852;2023-08-06T13:37:37;1.55;;;0.70;;
22843;SDS011;11588;51.178;4.852;2023-08-06T13:40:04;1.77;;;0.28;;
22843;SDS011;11588;51.178;4.852;2023-08-06T13:42:31;0.85;;;0.22;;
22843;SDS011;11588;51.178;4.852;2023-08-06T13:44:58;0.65;;;0.30;;
22843;SDS011;11588;51.178;4.852;2023-08-06T13:47:30;2.72;;;0.40;;
22843;SDS011;11588;51.178;4.852;2023-08-06T13:49:58;0.88;;;0.57;;
22843;SDS011;11588;51.178;4.852;2023-08-06T13:52:25;3.58;;;0.60;;
22843;SDS011;11588;51.178;4.852;2023-08-06T13:54:56;1.75;;;0.50;;
22843;SDS011;11588;51.178;4.852;2023-08-06T13:57:25;2.25;;;0.43;;
22843;SDS011;11588;51.178;4.852;2023-08-06T13:59:56;2.20;;;0.28;;
22843;SDS011;11588;51.178;4.852;2023-08-06T14:02:34;2.90;;;1.15;;
22843;SDS011;11588;51.178;4.852;2023-08-06T14:05:00;0.55;;;0.55;;
22843;SDS011;11588;51.178;4.852;2023-08-06T14:07:32;0.88;;;0.50;;
22843;SDS011;11588;51.178;4.852;2023-08-06T14:09:58;0.57;;;0.40;;
22843;SDS011;11588;51.178;4.852;2023-08-06T14:12:24;1.70;;;0.73;;
22843;SDS011;11588;51.178;4.852;2023-08-06T14:14:51;1.88;;;0.10;;
22843;SDS011;11588;51.178;4.852;2023-08-06T14:17:19;0.10;;;0.10;;
22843;SDS011;11588;51.178;4.852;2023-08-06T14:19:47;2.95;;;0.50;;
22843;SDS011;11588;51.178;4.852;2023-08-06T14:22:13;3.80;;;0.75;;
22843;SDS011;11588;51.178;4.852;2023-08-06T14:24:38;1.65;;;0.30;;
22843;SDS011;11588;51.178;4.852;2023-08-06T14:27:05;0.30;;;0.22;;
22843;SDS011;11588;51.178;4.852;2023-08-06T14:29:33;0.68;;;0.50;;
22843;SDS011;11588;51.178;4.852;2023-08-06T14:32:02;2.72;;;1.00;;
22843;SDS011;11588;51.178;4.852;2023-08-06T14:34:28;3.92;;;1.13;;
22843;SDS011;11588;51.178;4.852;2023-08-06T14:36:54;4.25;;;0.45;;
22843;SDS011;11588;51.178;4.852;2023-08-06T14:39:21;1.20;;;0.47;;
22843;SDS011;11588;51.178;4.852;2023-08-06T14:41:49;2.38;;;0.60;;
22843;SDS011;11588;51.178;4.852;2023-08-06T14:44:20;1.63;;;0.20;;
22843;SDS011;11588;51.178;4.852;2023-08-06T14:46:47;0.80;;;0.38;;
22843;SDS011;11588;51.178;4.852;2023-08-06T14:49:14;3.00;;;0.55;;
22843;SDS011;11588;51.178;4.852;2023-08-06T14:51:40;0.35;;;0.35;;
22843;SDS011;11588;51.178;4.852;2023-08-06T14:54:07;1.42;;;0.60;;
22843;SDS011;11588;51.178;4.852;2023-08-06T14:56:35;1.65;;;0.30;;
22843;SDS011;11588;51.178;4.852;2023-08-06T14:59:01;3.17;;;0.55;;
22843;SDS011;11588;51.178;4.852;2023-08-06T15:01:30;0.40;;;0.20;;
22843;SDS011;11588;51.178;4.852;2023-08-06T15:03:56;2.45;;;0.80;;